Coastal Venture — WDF3647 — position and weather

sailwx.info

Track history (hours):
 
Tides and Currents Weather Stations Pressure Air Temp Water Temp Dewpoint Dewpoint Depression Visibility Wind Speed Wind Dir Waves Ship Positions

Coastal Venture

Owner: Stevens Transportation, LLC, Yonges Island, SC. More information available from US FCC via Universal Licensing System and Coast Guard Vessel Documentation Center.

Last reported at 2018-Jun-28 11:44 UTC. Time now 2018-Jul-16 00:34 UTC.
Position N 36°09' W 005°22'.
Warning: this ship's position is 17 days out of date.

Length 75 m; draft 12.5 m.

Type: Cargo ship. MMSI: 302232424.

Date/timePositionNaut miles runAvg speedWind from/ knotsBaromVisibWave heightAir tempDewpointWater temp
2018-Jun-28 11:44N 36°09' W 005°22'0 0.0
2018-Jun-28 11:29N 36°09' W 005°22'0 0.0
2018-Jun-28 10:50N 36°09' W 005°22'0 0.0
2018-Jun-28 10:29N 36°09' W 005°22'0 0.0
2018-Jun-28 09:53N 36°09' W 005°22'0 0.0
2018-Jun-28 09:20N 36°09' W 005°22'0 0.0
2018-Jun-28 08:58N 36°09' W 005°22'3 5.6
2018-Jun-28 08:30N 36°06' W 005°22'5 9.2
2018-Jun-28 08:00N 36°03' W 005°18'4 8.9
2018-Jun-28 07:30N 36°04' W 005°12'21610.9
2018-Jun-27 11:37N 36°46' W 000°49'112.3
2018-Jun-27 11:30N 36°46' W 000°47'5012.4
2018-Jun-27 07:27N 36°60' E 000°14'613.0
2018-Jun-27 07:00N 37°01' E 000°21'612.7
2018-Jun-27 06:30N 37°02' E 000°28'612.8
2018-Jun-27 05:59N 37°04' E 000°36'612.3
2018-Jun-27 05:29N 37°06' E 000°44'1112.3
2018-Jun-27 04:36N 37°09' E 000°57'212.3
2018-Jun-27 04:25N 37°10' E 000°60'612.1
2018-Jun-27 03:55N 37°12' E 001°07'511.9
2018-Jun-27 03:30N 37°13' E 001°13'612.0
2018-Jun-27 03:00N 37°16' E 001°19'612.2
2018-Jun-27 02:30N 37°18' E 001°27'612.3
2018-Jun-27 02:00N 37°20' E 001°34'612.2
2018-Jun-27 01:29N 37°21' E 001°42'612.3
2018-Jun-27 01:00N 37°23' E 001°49'612.5
2018-Jun-27 00:30N 37°25' E 001°56'  
2018-Jun-23 09:37N 37°38' E 002°55'112.3
2018-Jun-23 09:30N 37°38' E 002°54'612.1
2018-Jun-23 09:00N 37°36' E 002°46'612.0
2018-Jun-23 08:30N 37°34' E 002°39'612.4
2018-Jun-23 08:00N 37°32' E 002°32'612.4
2018-Jun-23 07:30N 37°30' E 002°24'612.4
2018-Jun-23 06:59N 37°29' E 002°16'612.0
2018-Jun-23 06:30N 37°27' E 002°10'611.9
2018-Jun-23 06:00N 37°25' E 002°02'611.8
2018-Jun-23 05:30N 37°23' E 001°55'611.8
2018-Jun-23 05:00N 37°22' E 001°48'611.9
2018-Jun-23 04:30N 37°20' E 001°41'611.8
2018-Jun-23 04:01N 37°18' E 001°34'611.8
2018-Jun-23 03:30N 37°16' E 001°27'611.9
2018-Jun-23 03:00N 37°14' E 001°20'611.9
2018-Jun-23 02:31N 37°13' E 001°13'611.6
2018-Jun-23 02:00N 37°11' E 001°06'611.5
2018-Jun-23 01:30N 37°09' E 000°59'611.5
2018-Jun-23 01:00N 37°07' E 000°52'611.5
2018-Jun-23 00:30N 37°06' E 000°45'611.4
2018-Jun-22 23:59N 37°05' E 000°38'511.3
2018-Jun-22 23:31N 37°03' E 000°31'611.2
2018-Jun-22 23:00N 37°02' E 000°24'611.5
2018-Jun-22 22:30N 36°59' E 000°18'911.6
2018-Jun-22 21:43N 36°56' E 000°07'211.7
2018-Jun-22 21:31N 36°56' E 000°04'611.7
2018-Jun-22 21:00N 36°54' W 000°03'611.7
2018-Jun-22 20:29N 36°52' W 000°10'611.7
2018-Jun-22 19:58N 36°50' W 000°18'611.9
2018-Jun-22 19:25N 36°48' W 000°25'611.9
2018-Jun-22 18:57N 36°47' W 000°32'611.8
2018-Jun-22 18:24N 36°44' W 000°39'511.7
2018-Jun-22 18:00N 36°43' W 000°45'  
Track history (hours):
 
Tides and Currents Weather Stations Pressure Air Temp Water Temp Dewpoint Dewpoint Depression Visibility Wind Speed Wind Dir Waves Ship Positions

Coastal Venture

Owner: Stevens Transportation, LLC, Yonges Island, SC. More information available from US FCC via Universal Licensing System and Coast Guard Vessel Documentation Center.

Last reported at 2018-Jun-28 11:44 UTC. Time now 2018-Jul-16 00:34 UTC.
Position N 36°09' W 005°22'.
Warning: this ship's position is 17 days out of date.

Length 75 m; draft 12.5 m.

Type: Cargo ship. MMSI: 302232424.

Date/timePositionNaut miles runAvg speedWind from/ knotsBaromVisibWave heightAir tempDewpointWater temp
2018-Jun-28 11:44N 36°09' W 005°22'0 0.0
2018-Jun-28 11:29N 36°09' W 005°22'0 0.0
2018-Jun-28 10:50N 36°09' W 005°22'0 0.0
2018-Jun-28 10:29N 36°09' W 005°22'0 0.0
2018-Jun-28 09:53N 36°09' W 005°22'0 0.0
2018-Jun-28 09:20N 36°09' W 005°22'0 0.0
2018-Jun-28 08:58N 36°09' W 005°22'3 5.6
2018-Jun-28 08:30N 36°06' W 005°22'5 9.2
2018-Jun-28 08:00N 36°03' W 005°18'4 8.9
2018-Jun-28 07:30N 36°04' W 005°12'21610.9
2018-Jun-27 11:37N 36°46' W 000°49'112.3
2018-Jun-27 11:30N 36°46' W 000°47'5012.4
2018-Jun-27 07:27N 36°60' E 000°14'613.0
2018-Jun-27 07:00N 37°01' E 000°21'612.7
2018-Jun-27 06:30N 37°02' E 000°28'612.8
2018-Jun-27 05:59N 37°04' E 000°36'612.3
2018-Jun-27 05:29N 37°06' E 000°44'1112.3
2018-Jun-27 04:36N 37°09' E 000°57'212.3
2018-Jun-27 04:25N 37°10' E 000°60'612.1
2018-Jun-27 03:55N 37°12' E 001°07'511.9
2018-Jun-27 03:30N 37°13' E 001°13'612.0
2018-Jun-27 03:00N 37°16' E 001°19'612.2
2018-Jun-27 02:30N 37°18' E 001°27'612.3
2018-Jun-27 02:00N 37°20' E 001°34'612.2
2018-Jun-27 01:29N 37°21' E 001°42'612.3
2018-Jun-27 01:00N 37°23' E 001°49'612.5
2018-Jun-27 00:30N 37°25' E 001°56'  
2018-Jun-23 09:37N 37°38' E 002°55'112.3
2018-Jun-23 09:30N 37°38' E 002°54'612.1
2018-Jun-23 09:00N 37°36' E 002°46'612.0
2018-Jun-23 08:30N 37°34' E 002°39'612.4
2018-Jun-23 08:00N 37°32' E 002°32'612.4
2018-Jun-23 07:30N 37°30' E 002°24'612.4
2018-Jun-23 06:59N 37°29' E 002°16'612.0
2018-Jun-23 06:30N 37°27' E 002°10'611.9
2018-Jun-23 06:00N 37°25' E 002°02'611.8
2018-Jun-23 05:30N 37°23' E 001°55'611.8
2018-Jun-23 05:00N 37°22' E 001°48'611.9
2018-Jun-23 04:30N 37°20' E 001°41'611.8
2018-Jun-23 04:01N 37°18' E 001°34'611.8
2018-Jun-23 03:30N 37°16' E 001°27'611.9
2018-Jun-23 03:00N 37°14' E 001°20'611.9
2018-Jun-23 02:31N 37°13' E 001°13'611.6
2018-Jun-23 02:00N 37°11' E 001°06'611.5
2018-Jun-23 01:30N 37°09' E 000°59'611.5
2018-Jun-23 01:00N 37°07' E 000°52'611.5
2018-Jun-23 00:30N 37°06' E 000°45'611.4
2018-Jun-22 23:59N 37°05' E 000°38'511.3
2018-Jun-22 23:31N 37°03' E 000°31'611.2
2018-Jun-22 23:00N 37°02' E 000°24'611.5
2018-Jun-22 22:30N 36°59' E 000°18'911.6
2018-Jun-22 21:43N 36°56' E 000°07'211.7
2018-Jun-22 21:31N 36°56' E 000°04'611.7
2018-Jun-22 21:00N 36°54' W 000°03'611.7
2018-Jun-22 20:29N 36°52' W 000°10'611.7
2018-Jun-22 19:58N 36°50' W 000°18'611.9
2018-Jun-22 19:25N 36°48' W 000°25'611.9
2018-Jun-22 18:57N 36°47' W 000°32'611.8
2018-Jun-22 18:24N 36°44' W 000°39'511.7
2018-Jun-22 18:00N 36°43' W 000°45'  

Dump ship's entire track history